createdAt,value
2019-01-05T00:02:53.706Z,99476.48
2019-01-05T00:05:42.042Z,99481.34
2019-01-05T00:08:32.025Z,99478.72
2019-01-05T00:11:29.291Z,99468.62
2019-01-05T00:14:23.510Z,99468.09
2019-01-05T00:17:15.722Z,99456.68
2019-01-05T00:20:12.121Z,99453.16
2019-01-05T00:23:01.189Z,99454.92
2019-01-05T00:25:52.705Z,99452.75
2019-01-05T00:28:43.928Z,99445.30
2019-01-05T00:31:38.055Z,99441.81
2019-01-05T00:34:34.466Z,99445.67
2019-01-05T00:37:25.278Z,99447.36
2019-01-05T00:40:29.229Z,99445.12
2019-01-05T00:43:20.137Z,99445.60
2019-01-05T00:46:14.734Z,99445.12
2019-01-05T00:49:09.109Z,99448.53
2019-01-05T00:52:07.470Z,99459.94
2019-01-05T00:55:13.918Z,99444.59
2019-01-05T00:58:07.995Z,99446.28
2019-01-05T01:01:01.717Z,99455.08
2019-01-05T01:03:53.151Z,99452.08
2019-01-05T01:06:47.411Z,99452.08
2019-01-05T01:09:37.458Z,99452.08
2019-01-05T01:12:27.305Z,99461.63
2019-01-05T01:15:30.782Z,99469.49
2019-01-05T01:18:24.480Z,99463.73
2019-01-05T01:21:21.779Z,99475.05
2019-01-05T01:24:18.892Z,99477.73
2019-01-05T01:27:09.088Z,99467.73
2019-01-05T01:29:53.905Z,99463.39
2019-01-05T01:32:48.171Z,99453.77
2019-01-05T01:35:52.267Z,99449.39
2019-01-05T01:39:22.185Z,99454.70
2019-01-05T01:42:25.647Z,99451.30
2019-01-05T01:45:14.722Z,99443.58
2019-01-05T01:48:06.287Z,99441.37
2019-01-05T01:50:56.266Z,99440.58
2019-01-05T01:53:46.135Z,99432.72
2019-01-05T01:56:36.092Z,99421.93
2019-01-05T01:59:33.959Z,99424.63
2019-01-05T02:02:21.692Z,99421.06
2019-01-05T02:05:18.867Z,99415.83
2019-01-05T02:08:10.864Z,99411.19
2019-01-05T02:10:57.933Z,99408.48
2019-01-05T02:13:55.359Z,99390.63
2019-01-05T02:17:12.448Z,99395.87
2019-01-05T02:20:57.726Z,99393.55
2019-01-05T02:24:46.322Z,99367.49
2019-01-05T02:28:16.889Z,99381.05
2019-01-05T02:31:42.821Z,99375.80
2019-01-05T02:35:40.025Z,99366.56
2019-01-05T02:39:13.126Z,99363.27
2019-01-05T02:42:38.513Z,99361.02
2019-01-05T02:46:27.600Z,99355.25
2019-01-05T02:50:20.972Z,99343.08
2019-01-05T02:54:31.216Z,99345.78
2019-01-05T02:58:24.759Z,99343.08
2019-01-05T03:02:09.813Z,99326.42
2019-01-05T03:05:42.328Z,99321.86
2019-01-05T03:09:26.139Z,99303.84
2019-01-05T03:13:07.994Z,99298.69
2019-01-05T03:16:45.815Z,99288.73
2019-01-05T03:20:37.125Z,99274.69
2019-01-05T03:24:32.143Z,99269.45
2019-01-05T03:28:15.516Z,99256.19
2019-01-05T03:31:58.056Z,99245.71
2019-01-05T03:35:59.579Z,99233.63
2019-01-05T03:39:44.775Z,99235.79
2019-01-05T03:43:39.712Z,99230.55
2019-01-05T03:47:28.048Z,99216.80
2019-01-05T03:51:28.388Z,99203.09
2019-01-05T03:55:39.940Z,99185.65
2019-01-05T03:59:51.799Z,99190.81
2019-01-05T04:04:17.747Z,99172.88
2019-01-05T04:08:12.226Z,99171.64
2019-01-05T04:12:06.826Z,99175.11
2019-01-05T04:15:56.524Z,99169.87
2019-01-05T04:20:03.805Z,99170.59
2019-01-05T04:23:51.300Z,99164.14
2019-01-05T04:27:31.736Z,99160.27
2019-01-05T04:31:12.908Z,99161.14
2019-01-05T04:34:38.413Z,99160.92
2019-01-05T04:38:25.235Z,99153.38
2019-01-05T04:42:12.245Z,99151.59
2019-01-05T04:46:19.245Z,99138.05
2019-01-05T04:50:01.623Z,99133.98
2019-01-05T04:54:13.861Z,99124.97
2019-01-05T04:57:57.050Z,99109.27
2019-01-05T05:02:10.727Z,99106.80
2019-01-05T05:06:15.786Z,99114.50
2019-01-05T05:10:09.022Z,99101.08
2019-01-05T05:14:04.456Z,99098.38
2019-01-05T05:17:31.504Z,99095.39
2019-01-05T05:21:16.704Z,99085.38
2019-01-05T05:24:50.328Z,99094.45
2019-01-05T05:29:03.852Z,99093.16
2019-01-05T05:32:50.153Z,99091.41
2019-01-05T05:36:59.864Z,99076.23
2019-01-05T05:40:43.125Z,99075.15
2019-01-05T05:44:38.069Z,99067.06
2019-01-05T05:48:20.570Z,99061.45
2019-01-05T05:52:23.171Z,99063.92
2019-01-05T05:56:18.112Z,99056.30
2019-01-05T06:00:23.008Z,99042.06
2019-01-05T06:04:08.807Z,99049.98
2019-01-05T06:07:51.758Z,99042.66
2019-01-05T06:11:44.799Z,99041.61
2019-01-05T06:15:27.254Z,99032.45
2019-01-05T06:19:20.522Z,99032.82
2019-01-05T06:23:21.564Z,99019.20
2019-01-05T06:26:55.976Z,99021.12
2019-01-05T06:30:37.672Z,99006.66
2019-01-05T06:34:05.837Z,99012.50
2019-01-05T06:37:34.374Z,99004.73
2019-01-05T06:41:13.206Z,99007.11
2019-01-05T06:45:11.753Z,99006.25
2019-01-05T06:49:02.603Z,98995.49
2019-01-05T06:52:53.723Z,98985.71
2019-01-05T06:56:42.146Z,98989.85
2019-01-05T07:00:23.862Z,98988.38
2019-01-05T07:04:34.778Z,98980.37
2019-01-05T07:08:34.609Z,98984.83
2019-01-05T07:12:30.100Z,98993.35
2019-01-05T07:16:24.873Z,99003.27
2019-01-05T07:20:33.429Z,98988.94
2019-01-05T07:24:13.445Z,98983.05
2019-01-05T07:27:57.994Z,98997.57
2019-01-05T07:31:45.574Z,98985.55
2019-01-05T07:35:54.119Z,98984.08
2019-01-05T07:39:59.039Z,98983.99
2019-01-05T07:43:50.166Z,98984.85
2019-01-05T07:47:39.038Z,98985.63
2019-01-05T07:51:43.932Z,98989.15
2019-01-05T07:55:37.620Z,98979.98
2019-01-05T07:59:26.493Z,98979.66
2019-01-05T08:03:16.769Z,98975.07
2019-01-05T08:07:21.793Z,98960.02
2019-01-05T08:11:05.967Z,98975.36
2019-01-05T08:15:45.744Z,98973.89
2019-01-05T08:19:38.681Z,98974.13
2019-01-05T08:23:09.623Z,98987.31
2019-01-05T08:27:05.793Z,98982.69
2019-01-05T08:31:16.084Z,98973.36
2019-01-05T08:35:25.616Z,98975.52
2019-01-05T08:39:42.182Z,98988.33
2019-01-05T08:43:43.958Z,98964.59
2019-01-05T08:47:17.912Z,98971.22
2019-01-05T08:50:50.172Z,98979.66
2019-01-05T08:54:26.936Z,98964.19
2019-01-05T08:58:44.373Z,98977.28
2019-01-05T09:02:32.283Z,98993.90
2019-01-05T09:06:35.808Z,98976.34
2019-01-05T09:10:41.604Z,98993.28
2019-01-05T09:14:14.931Z,98995.00
2019-01-05T09:17:54.540Z,98997.25
2019-01-05T09:21:56.707Z,99007.16
2019-01-05T09:25:42.179Z,99005.48
2019-01-05T09:29:43.293Z,99012.31
2019-01-05T09:33:51.923Z,99011.33
2019-01-05T09:37:49.583Z,99016.77
2019-01-05T09:41:41.191Z,99013.67
2019-01-05T09:45:41.104Z,99016.61
2019-01-05T09:49:26.577Z,99000.33
2019-01-05T09:53:10.170Z,98986.33
2019-01-05T09:56:54.138Z,98996.92
2019-01-05T10:00:45.970Z,98983.09
2019-01-05T10:04:31.112Z,98987.17
2019-01-05T10:08:49.532Z,98975.75
2019-01-05T10:12:21.683Z,98975.79
2019-01-05T10:15:58.768Z,98971.32
2019-01-05T10:19:28.654Z,98962.34
2019-01-05T10:23:00.000Z,98962.80
2019-01-05T10:26:48.827Z,98961.06
2019-01-05T10:30:46.564Z,98948.73
2019-01-05T10:34:36.361Z,98951.89
2019-01-05T10:38:44.752Z,98948.27
2019-01-05T10:42:15.638Z,98948.73
2019-01-05T10:46:00.558Z,98947.08
2019-01-05T10:49:49.187Z,98949.52
2019-01-05T10:54:06.236Z,98945.96
2019-01-05T10:58:39.557Z,98946.64
2019-01-05T11:02:51.247Z,98939.23
2019-01-05T11:06:36.849Z,98924.47
2019-01-05T11:10:18.230Z,98931.88
2019-01-05T11:14:23.371Z,98920.55
2019-01-05T11:18:36.003Z,98925.97
2019-01-05T11:21:52.961Z,98920.55
2019-01-05T11:25:24.530Z,98914.58
2019-01-05T11:29:18.115Z,98906.14
2019-01-05T11:33:11.325Z,98910.84
2019-01-05T11:37:03.070Z,98914.77
2019-01-05T11:41:42.993Z,98914.42
2019-01-05T11:45:47.392Z,98910.33
2019-01-05T11:49:40.768Z,98903.21
2019-01-05T11:53:34.565Z,98908.83
2019-01-05T11:57:09.540Z,98902.45
2019-01-05T12:00:52.291Z,98897.88
2019-01-05T12:05:03.845Z,98894.89
2019-01-05T12:08:58.562Z,98904.08
2019-01-05T12:12:44.432Z,98893.67
2019-01-05T12:16:59.883Z,98889.18
2019-01-05T12:21:14.777Z,98891.22
2019-01-05T12:25:37.737Z,98880.35
2019-01-05T12:29:40.163Z,98883.46
2019-01-05T12:33:44.977Z,98882.69
2019-01-05T12:37:26.936Z,98884.02
2019-01-05T12:41:18.979Z,98887.28
2019-01-05T12:45:15.375Z,98889.45
2019-01-05T12:49:06.122Z,98881.30
2019-01-05T12:53:01.722Z,98882.42
2019-01-05T12:56:40.510Z,98887.29
2019-01-05T13:00:52.605Z,98894.77
2019-01-05T13:05:07.984Z,98887.20
2019-01-05T13:08:52.151Z,98893.27
2019-01-05T13:12:49.366Z,98889.70
2019-01-05T13:16:54.483Z,98897.57
2019-01-05T13:20:55.199Z,98902.63
2019-01-05T13:24:51.419Z,98900.77
2019-01-05T13:28:51.704Z,98902.25
2019-01-05T13:32:50.160Z,98914.08
2019-01-05T13:36:45.263Z,98905.19
2019-01-05T13:40:56.687Z,98918.03
2019-01-05T13:45:09.581Z,98915.41
2019-01-05T13:49:00.195Z,98915.77
2019-01-05T13:52:41.057Z,98927.00
2019-01-05T13:55:58.310Z,98928.32
2019-01-05T13:59:08.018Z,98936.50
2019-01-05T14:01:57.813Z,98930.85
2019-01-05T14:04:52.129Z,98922.51
2019-01-05T14:07:43.338Z,98932.07
2019-01-05T14:10:44.152Z,98935.91
2019-01-05T14:13:34.023Z,98935.91
2019-01-05T14:16:25.580Z,98931.16
2019-01-05T14:19:17.235Z,98937.62
2019-01-05T14:22:14.501Z,98931.05
2019-01-05T14:25:14.905Z,98924.75
2019-01-05T14:28:00.167Z,98928.23
2019-01-05T14:31:06.799Z,98929.82
2019-01-05T14:34:07.311Z,98937.61
2019-01-05T14:36:59.841Z,98936.39
2019-01-05T14:39:50.354Z,98930.58
2019-01-05T14:42:53.793Z,98935.25
2019-01-05T14:45:57.095Z,98933.47
2019-01-05T14:48:46.716Z,98932.06
2019-01-05T14:51:34.771Z,98942.39
2019-01-05T14:54:25.035Z,98945.02
2019-01-05T14:57:19.191Z,98947.64
2019-01-05T15:00:09.614Z,98950.27
2019-01-05T15:03:07.077Z,98950.53
2019-01-05T15:05:58.581Z,98955.34
2019-01-05T15:08:48.537Z,98947.91
2019-01-05T15:11:56.475Z,98954.02
2019-01-05T15:14:53.626Z,98952.70
2019-01-05T15:17:51.044Z,98960.50
2019-01-05T15:20:52.998Z,98963.22
2019-01-05T15:23:38.509Z,98965.84
2019-01-05T15:26:28.579Z,98971.56
2019-01-05T15:29:38.109Z,98968.94
2019-01-05T15:32:32.081Z,98965.84
2019-01-05T15:35:24.181Z,98963.68
2019-01-05T15:38:16.117Z,98965.84
2019-01-05T15:41:06.235Z,98971.56
2019-01-05T15:44:09.320Z,98973.24
2019-01-05T15:46:59.641Z,98977.28
2019-01-05T15:50:00.083Z,98971.11
2019-01-05T15:53:00.493Z,98984.16
2019-01-05T15:55:54.675Z,98983.76
2019-01-05T15:58:44.873Z,98992.13
2019-01-05T16:01:35.118Z,98988.19
2019-01-05T16:04:29.073Z,98986.29
2019-01-05T16:07:19.514Z,98992.13
2019-01-05T16:10:09.596Z,98995.59
2019-01-05T16:12:59.580Z,98998.52
2019-01-05T16:15:50.021Z,99002.65
2019-01-05T16:18:40.062Z,98998.12
2019-01-05T16:21:30.285Z,98999.43
2019-01-05T16:24:27.506Z,98995.59
2019-01-05T16:27:17.672Z,98997.30
2019-01-05T16:30:20.969Z,99003.37
2019-01-05T16:33:10.801Z,98990.82
2019-01-05T16:36:01.841Z,98999.06
2019-01-05T16:38:52.093Z,98999.06
2019-01-05T16:42:01.774Z,99000.75
2019-01-05T16:44:51.076Z,99001.51
2019-01-05T16:47:41.211Z,99003.67
2019-01-05T16:50:31.478Z,99006.30
2019-01-05T16:53:21.776Z,99004.98
2019-01-05T16:56:12.973Z,99000.09
2019-01-05T16:59:10.197Z,99000.95
2019-01-05T17:02:00.475Z,99006.58
2019-01-05T17:04:50.355Z,98998.69
2019-01-05T17:07:47.781Z,99001.22
2019-01-05T17:10:38.306Z,99003.00
2019-01-05T17:13:29.646Z,99011.45
2019-01-05T17:16:26.812Z,99000.94
2019-01-05T17:19:27.505Z,98993.98
2019-01-05T17:22:21.852Z,98997.36
2019-01-05T17:25:21.856Z,98995.09
2019-01-05T17:28:11.728Z,98996.80
2019-01-05T17:31:01.453Z,99005.61
2019-01-05T17:34:10.873Z,99005.13
2019-01-05T17:37:21.171Z,99002.23
2019-01-05T17:40:09.406Z,99003.81
2019-01-05T17:43:06.725Z,99007.39
2019-01-05T17:46:07.141Z,99008.34
2019-01-05T17:48:57.486Z,99011.34
2019-01-05T17:51:48.750Z,99015.28
2019-01-05T17:54:43.190Z,99015.95
2019-01-05T17:57:40.506Z,99015.95
2019-01-05T18:00:30.454Z,99018.25
2019-01-05T18:03:19.554Z,99019.69
2019-01-05T18:06:09.360Z,99026.44
2019-01-05T18:09:00.239Z,99018.55
2019-01-05T18:12:00.648Z,99021.55
2019-01-05T18:14:50.572Z,99031.02
2019-01-05T18:17:41.056Z,99027.47
2019-01-05T18:20:38.322Z,99026.05
2019-01-05T18:23:32.314Z,99029.81
2019-01-05T18:26:31.091Z,99034.38
2019-01-05T18:29:34.607Z,99036.09
2019-01-05T18:32:24.206Z,99026.03
2019-01-05T18:35:18.649Z,99032.31
2019-01-05T18:38:09.954Z,99028.47
2019-01-05T18:41:01.605Z,99028.17
2019-01-05T18:44:10.963Z,99025.91
2019-01-05T18:47:14.009Z,99037.55
2019-01-05T18:50:01.485Z,99024.86
2019-01-05T18:53:10.989Z,99023.41
2019-01-05T18:56:02.361Z,99029.62
2019-01-05T18:58:57.722Z,99034.70
2019-01-05T19:02:07.325Z,99032.72
2019-01-05T19:05:00.896Z,99030.35
2019-01-05T19:08:03.924Z,99033.84
2019-01-05T19:10:53.604Z,99030.52
2019-01-05T19:13:40.001Z,99029.95
2019-01-05T19:16:33.651Z,99034.17
2019-01-05T19:19:27.600Z,99033.70
2019-01-05T19:22:33.818Z,99035.84
2019-01-05T19:25:26.120Z,99036.50
2019-01-05T19:28:16.547Z,99034.13
2019-01-05T19:31:14.186Z,99034.43
2019-01-05T19:34:04.416Z,99032.62
2019-01-05T19:37:04.335Z,99030.38
2019-01-05T19:40:14.098Z,99033.93
2019-01-05T19:43:14.221Z,99038.44
2019-01-05T19:46:04.081Z,99036.56
2019-01-05T19:48:58.445Z,99030.34
2019-01-05T19:52:08.406Z,99036.83
2019-01-05T19:55:08.292Z,99027.97
2019-01-05T19:57:58.238Z,99031.25
2019-01-05T20:01:01.440Z,99022.14
2019-01-05T20:04:01.828Z,99022.41
2019-01-05T20:06:51.974Z,99022.04
2019-01-05T20:09:55.001Z,99022.77
2019-01-05T20:12:45.264Z,99026.15
2019-01-05T20:15:35.303Z,99022.77
2019-01-05T20:18:28.362Z,99025.69
2019-01-05T20:21:34.439Z,99021.84
2019-01-05T20:24:40.917Z,99026.52
2019-01-05T20:27:35.181Z,99022.95
2019-01-05T20:30:27.108Z,99025.09
2019-01-05T20:33:17.386Z,99026.91
2019-01-05T20:36:09.327Z,99021.89
2019-01-05T20:38:59.412Z,99022.45
2019-01-05T20:41:56.686Z,99026.70
2019-01-05T20:44:46.756Z,99028.58
2019-01-05T20:47:36.620Z,99030.66
2019-01-05T20:50:34.078Z,99031.97
2019-01-05T20:53:41.591Z,99034.96
2019-01-05T20:56:33.707Z,99034.96
2019-01-05T20:59:43.258Z,99039.27
2019-01-05T21:02:40.427Z,99035.12
2019-01-05T21:05:43.965Z,99029.23
2019-01-05T21:08:34.865Z,99033.80
2019-01-05T21:11:38.445Z,99030.42
2019-01-05T21:14:29.633Z,99040.48
2019-01-05T21:17:19.478Z,99036.44
2019-01-05T21:20:18.724Z,99035.48
2019-01-05T21:23:20.684Z,99039.92
2019-01-05T21:26:27.326Z,99042.45
2019-01-05T21:29:24.945Z,99047.33
2019-01-05T21:32:15.055Z,99046.02
2019-01-05T21:35:05.209Z,99045.45
2019-01-05T21:37:48.518Z,99048.94
2019-01-05T21:40:38.493Z,99045.81
2019-01-05T21:43:25.425Z,99055.78
2019-01-05T21:46:32.836Z,99053.15
2019-01-05T21:49:27.072Z,99053.15
2019-01-05T21:52:33.993Z,99041.40
2019-01-05T21:55:31.800Z,99041.30
2019-01-05T21:58:26.250Z,99047.03
2019-01-05T22:01:26.007Z,99046.20
2019-01-05T22:04:15.728Z,99050.52
2019-01-05T22:07:06.142Z,99043.93
2019-01-05T22:10:12.772Z,99046.00
2019-01-05T22:13:02.975Z,99049.36
2019-01-05T22:15:53.103Z,99048.64
2019-01-05T22:18:44.269Z,99051.98
2019-01-05T22:21:53.981Z,99058.67
2019-01-05T22:24:48.284Z,99053.11
2019-01-05T22:27:36.289Z,99057.06
2019-01-05T22:30:27.756Z,99060.55
2019-01-05T22:33:22.174Z,99063.64
2019-01-05T22:36:19.254Z,99069.30
2019-01-05T22:39:12.371Z,99065.35
2019-01-05T22:42:06.167Z,99070.23
2019-01-05T22:45:04.793Z,99073.72
2019-01-05T22:47:56.371Z,99073.61
2019-01-05T22:50:53.401Z,99067.85
2019-01-05T22:53:43.287Z,99064.95
2019-01-05T22:56:31.728Z,99071.94
2019-01-05T22:59:21.519Z,99064.03
2019-01-05T23:02:12.682Z,99067.03
2019-01-05T23:05:15.794Z,99065.81
2019-01-05T23:08:09.727Z,99072.86
2019-01-05T23:11:12.554Z,99065.91
2019-01-05T23:14:21.373Z,99067.59
2019-01-05T23:17:11.385Z,99069.66
2019-01-05T23:20:08.567Z,99069.66
2019-01-05T23:23:03.032Z,99067.13
2019-01-05T23:25:50.800Z,99066.67
2019-01-05T23:28:51.350Z,99063.91
2019-01-05T23:31:43.970Z,99071.08
2019-01-05T23:34:30.698Z,99064.95
2019-01-05T23:37:40.557Z,99065.91
2019-01-05T23:40:37.911Z,99064.95
2019-01-05T23:43:38.590Z,99066.88
2019-01-05T23:46:27.336Z,99069.41
2019-01-05T23:49:18.898Z,99068.55
2019-01-05T23:52:14.610Z,99065.35
2019-01-05T23:55:04.696Z,99078.33
2019-01-05T23:57:54.891Z,99084.00
